sensor_id;sensor_type;location;lat;lon;timestamp;pressure;altitude;pressure_sealevel;temperature;humidity
18900;BME280;9582;52.018;6.306;2023-09-19T00:02:20;101428.84;;;15.19;100.00
18900;BME280;9582;52.018;6.306;2023-09-19T00:04:47;101440.34;;;15.18;100.00
18900;BME280;9582;52.018;6.306;2023-09-19T00:07:14;101446.63;;;15.15;100.00
18900;BME280;9582;52.018;6.306;2023-09-19T00:09:41;101447.72;;;15.11;100.00
18900;BME280;9582;52.018;6.306;2023-09-19T00:12:09;101440.91;;;15.07;100.00
18900;BME280;9582;52.018;6.306;2023-09-19T00:14:36;101445.34;;;15.07;100.00
18900;BME280;9582;52.018;6.306;2023-09-19T00:17:04;101440.22;;;15.03;100.00
18900;BME280;9582;52.018;6.306;2023-09-19T00:19:33;101449.81;;;15.04;100.00
18900;BME280;9582;52.018;6.306;2023-09-19T00:21:59;101445.66;;;15.00;100.00
18900;BME280;9582;52.018;6.306;2023-09-19T00:24:26;101449.22;;;14.99;100.00
18900;BME280;9582;52.018;6.306;2023-09-19T00:26:54;101444.09;;;14.96;100.00
18900;BME280;9582;52.018;6.306;2023-09-19T00:29:20;101444.25;;;14.93;100.00
18900;BME280;9582;52.018;6.306;2023-09-19T00:31:49;101447.00;;;14.92;100.00
18900;BME280;9582;52.018;6.306;2023-09-19T00:34:17;101450.69;;;14.88;100.00
18900;BME280;9582;52.018;6.306;2023-09-19T00:36:45;101449.03;;;14.87;100.00
18900;BME280;9582;52.018;6.306;2023-09-19T00:39:12;101446.28;;;14.88;100.00
18900;BME280;9582;52.018;6.306;2023-09-19T00:41:39;101446.13;;;14.91;100.00
18900;BME280;9582;52.018;6.306;2023-09-19T00:44:06;101442.56;;;14.92;100.00
18900;BME280;9582;52.018;6.306;2023-09-19T00:46:32;101436.28;;;14.95;100.00
18900;BME280;9582;52.018;6.306;2023-09-19T00:48:59;101434.34;;;14.98;100.00
18900;BME280;9582;52.018;6.306;2023-09-19T00:51:27;101436.03;;;14.99;100.00
18900;BME280;9582;52.018;6.306;2023-09-19T00:53:55;101432.66;;;14.97;100.00
18900;BME280;9582;52.018;6.306;2023-09-19T00:56:22;101434.50;;;14.95;100.00
18900;BME280;9582;52.018;6.306;2023-09-19T00:58:48;101431.03;;;14.95;100.00
18900;BME280;9582;52.018;6.306;2023-09-19T01:01:15;101427.63;;;14.93;100.00
18900;BME280;9582;52.018;6.306;2023-09-19T01:03:42;101430.34;;;14.91;100.00
18900;BME280;9582;52.018;6.306;2023-09-19T01:06:08;101436.53;;;14.90;100.00
18900;BME280;9582;52.018;6.306;2023-09-19T01:08:39;101433.13;;;14.88;100.00
18900;BME280;9582;52.018;6.306;2023-09-19T01:11:12;101438.53;;;14.85;100.00
18900;BME280;9582;52.018;6.306;2023-09-19T01:13:47;101441.19;;;14.85;100.00
18900;BME280;9582;52.018;6.306;2023-09-19T01:16:19;101444.78;;;14.84;100.00
18900;BME280;9582;52.018;6.306;2023-09-19T01:21:52;101444.78;;;14.84;100.00
18900;BME280;9582;52.018;6.306;2023-09-19T01:27:49;101442.44;;;14.78;100.00
18900;BME280;9582;52.018;6.306;2023-09-19T01:30:24;101461.94;;;14.74;100.00
18900;BME280;9582;52.018;6.306;2023-09-19T01:32:54;101454.47;;;14.67;100.00
18900;BME280;9582;52.018;6.306;2023-09-19T01:35:22;101460.91;;;14.61;100.00
18900;BME280;9582;52.018;6.306;2023-09-19T01:37:49;101450.69;;;14.55;100.00
18900;BME280;9582;52.018;6.306;2023-09-19T01:40:19;101455.19;;;14.53;100.00
18900;BME280;9582;52.018;6.306;2023-09-19T01:42:57;101463.13;;;14.52;100.00
18900;BME280;9582;52.018;6.306;2023-09-19T01:45:33;101462.28;;;14.51;100.00
18900;BME280;9582;52.018;6.306;2023-09-19T01:48:13;101459.75;;;14.50;100.00
18900;BME280;9582;52.018;6.306;2023-09-19T01:50:52;101447.50;;;14.49;100.00
18900;BME280;9582;52.018;6.306;2023-09-19T01:53:25;101450.22;;;14.47;100.00
18900;BME280;9582;52.018;6.306;2023-09-19T01:55:54;101457.31;;;14.45;100.00
18900;BME280;9582;52.018;6.306;2023-09-19T01:58:25;101453.06;;;14.42;100.00
18900;BME280;9582;52.018;6.306;2023-09-19T02:00:56;101454.88;;;14.42;100.00
18900;BME280;9582;52.018;6.306;2023-09-19T02:03:24;101450.69;;;14.38;100.00
18900;BME280;9582;52.018;6.306;2023-09-19T02:05:54;101451.59;;;14.37;100.00
18900;BME280;9582;52.018;6.306;2023-09-19T02:08:22;101456.94;;;14.35;100.00
18900;BME280;9582;52.018;6.306;2023-09-19T02:10:49;101457.81;;;14.36;100.00
18900;BME280;9582;52.018;6.306;2023-09-19T02:13:16;101453.47;;;14.35;100.00
18900;BME280;9582;52.018;6.306;2023-09-19T02:15:44;101463.97;;;14.35;100.00
18900;BME280;9582;52.018;6.306;2023-09-19T02:18:12;101462.91;;;14.39;100.00
18900;BME280;9582;52.018;6.306;2023-09-19T02:20:39;101458.41;;;14.41;100.00
18900;BME280;9582;52.018;6.306;2023-09-19T02:23:06;101471.56;;;14.41;100.00
18900;BME280;9582;52.018;6.306;2023-09-19T02:25:33;101476.75;;;14.42;100.00
18900;BME280;9582;52.018;6.306;2023-09-19T02:28:00;101474.22;;;14.41;100.00
18900;BME280;9582;52.018;6.306;2023-09-19T02:30:28;101478.56;;;14.42;100.00
18900;BME280;9582;52.018;6.306;2023-09-19T02:32:55;101481.09;;;14.43;100.00
18900;BME280;9582;52.018;6.306;2023-09-19T02:35:23;101483.72;;;14.43;100.00
18900;BME280;9582;52.018;6.306;2023-09-19T02:37:50;101483.81;;;14.42;100.00
18900;BME280;9582;52.018;6.306;2023-09-19T02:40:17;101479.72;;;14.36;100.00
18900;BME280;9582;52.018;6.306;2023-09-19T02:42:47;101486.81;;;14.34;100.00
18900;BME280;9582;52.018;6.306;2023-09-19T02:45:15;101479.13;;;14.30;100.00
18900;BME280;9582;52.018;6.306;2023-09-19T02:47:43;101486.31;;;14.26;100.00
18900;BME280;9582;52.018;6.306;2023-09-19T02:50:10;101492.56;;;14.24;100.00
18900;BME280;9582;52.018;6.306;2023-09-19T02:52:41;101500.75;;;14.18;100.00
18900;BME280;9582;52.018;6.306;2023-09-19T02:55:08;101513.28;;;14.13;100.00
18900;BME280;9582;52.018;6.306;2023-09-19T02:57:35;101511.72;;;14.09;100.00
18900;BME280;9582;52.018;6.306;2023-09-19T03:00:06;101512.72;;;14.06;100.00
18900;BME280;9582;52.018;6.306;2023-09-19T03:02:35;101523.38;;;14.03;100.00
18900;BME280;9582;52.018;6.306;2023-09-19T03:05:04;101538.47;;;14.00;100.00
18900;BME280;9582;52.018;6.306;2023-09-19T03:07:30;101545.66;;;13.96;100.00
18900;BME280;9582;52.018;6.306;2023-09-19T03:09:58;101533.50;;;13.94;100.00
18900;BME280;9582;52.018;6.306;2023-09-19T03:12:25;101540.59;;;13.92;100.00
18900;BME280;9582;52.018;6.306;2023-09-19T03:14:51;101538.97;;;13.89;100.00
18900;BME280;9582;52.018;6.306;2023-09-19T03:17:18;101558.38;;;13.86;100.00
18900;BME280;9582;52.018;6.306;2023-09-19T03:19:45;101556.81;;;13.82;100.00
18900;BME280;9582;52.018;6.306;2023-09-19T03:22:12;101559.63;;;13.78;100.00
18900;BME280;9582;52.018;6.306;2023-09-19T03:24:39;101566.84;;;13.74;100.00
18900;BME280;9582;52.018;6.306;2023-09-19T03:27:08;101561.78;;;13.70;100.00
18900;BME280;9582;52.018;6.306;2023-09-19T03:29:35;101563.75;;;13.65;100.00
18900;BME280;9582;52.018;6.306;2023-09-19T03:32:04;101558.78;;;13.59;100.00
18900;BME280;9582;52.018;6.306;2023-09-19T03:34:31;101563.44;;;13.52;100.00
18900;BME280;9582;52.018;6.306;2023-09-19T03:36:58;101555.72;;;13.49;100.00
18900;BME280;9582;52.018;6.306;2023-09-19T03:39:25;101558.50;;;13.46;100.00
18900;BME280;9582;52.018;6.306;2023-09-19T03:41:51;101556.06;;;13.42;100.00
18900;BME280;9582;52.018;6.306;2023-09-19T03:44:19;101553.66;;;13.37;100.00
18900;BME280;9582;52.018;6.306;2023-09-19T03:46:46;101551.16;;;13.34;100.00
18900;BME280;9582;52.018;6.306;2023-09-19T03:49:12;101550.38;;;13.32;100.00
18900;BME280;9582;52.018;6.306;2023-09-19T03:51:38;101554.06;;;13.28;100.00
18900;BME280;9582;52.018;6.306;2023-09-19T03:54:06;101561.16;;;13.26;100.00
18900;BME280;9582;52.018;6.306;2023-09-19T03:56:33;101556.03;;;13.23;100.00
18900;BME280;9582;52.018;6.306;2023-09-19T03:59:00;101557.06;;;13.19;100.00
18900;BME280;9582;52.018;6.306;2023-09-19T04:01:27;101562.41;;;13.17;100.00
18900;BME280;9582;52.018;6.306;2023-09-19T04:03:57;101565.16;;;13.14;100.00
18900;BME280;9582;52.018;6.306;2023-09-19T04:06:23;101556.47;;;13.12;100.00
18900;BME280;9582;52.018;6.306;2023-09-19T04:08:51;101569.78;;;13.09;100.00
18900;BME280;9582;52.018;6.306;2023-09-19T04:11:18;101555.03;;;13.05;100.00
18900;BME280;9582;52.018;6.306;2023-09-19T04:13:45;101556.78;;;13.05;100.00
18900;BME280;9582;52.018;6.306;2023-09-19T04:16:11;101550.75;;;13.03;100.00
18900;BME280;9582;52.018;6.306;2023-09-19T04:18:40;101551.66;;;13.02;100.00
18900;BME280;9582;52.018;6.306;2023-09-19T04:21:07;101553.50;;;13.00;100.00
18900;BME280;9582;52.018;6.306;2023-09-19T04:23:34;101551.78;;;12.99;100.00
18900;BME280;9582;52.018;6.306;2023-09-19T04:26:01;101558.13;;;12.95;100.00
18900;BME280;9582;52.018;6.306;2023-09-19T04:28:29;101562.44;;;12.96;100.00
18900;BME280;9582;52.018;6.306;2023-09-19T04:30:56;101570.31;;;12.96;100.00
18900;BME280;9582;52.018;6.306;2023-09-19T04:33:23;101568.63;;;12.95;100.00
18900;BME280;9582;52.018;6.306;2023-09-19T04:35:50;101589.63;;;12.95;100.00
18900;BME280;9582;52.018;6.306;2023-09-19T04:38:17;101598.41;;;12.94;100.00
18900;BME280;9582;52.018;6.306;2023-09-19T04:40:44;101606.16;;;12.97;100.00
18900;BME280;9582;52.018;6.306;2023-09-19T04:43:10;101616.66;;;12.97;100.00
18900;BME280;9582;52.018;6.306;2023-09-19T04:45:38;101614.81;;;12.99;100.00
18900;BME280;9582;52.018;6.306;2023-09-19T04:48:05;101620.88;;;13.01;100.00
18900;BME280;9582;52.018;6.306;2023-09-19T04:50:34;101630.38;;;13.03;100.00
18900;BME280;9582;52.018;6.306;2023-09-19T04:53:02;101632.16;;;13.03;100.00
18900;BME280;9582;52.018;6.306;2023-09-19T04:55:28;101630.50;;;13.00;100.00
18900;BME280;9582;52.018;6.306;2023-09-19T04:57:55;101641.06;;;12.99;100.00
18900;BME280;9582;52.018;6.306;2023-09-19T05:00:23;101644.63;;;12.98;100.00
18900;BME280;9582;52.018;6.306;2023-09-19T05:02:50;101655.16;;;12.96;100.00
18900;BME280;9582;52.018;6.306;2023-09-19T05:05:17;101670.88;;;12.98;100.00
18900;BME280;9582;52.018;6.306;2023-09-19T05:07:44;101671.69;;;12.98;100.00
18900;BME280;9582;52.018;6.306;2023-09-19T05:10:12;101666.53;;;12.97;100.00
18900;BME280;9582;52.018;6.306;2023-09-19T05:12:39;101671.00;;;12.95;100.00
18900;BME280;9582;52.018;6.306;2023-09-19T05:15:07;101670.91;;;12.96;100.00
18900;BME280;9582;52.018;6.306;2023-09-19T05:17:34;101669.28;;;12.94;100.00
18900;BME280;9582;52.018;6.306;2023-09-19T05:20:01;101657.91;;;12.93;100.00
18900;BME280;9582;52.018;6.306;2023-09-19T05:22:31;101649.06;;;12.96;100.00
18900;BME280;9582;52.018;6.306;2023-09-19T05:24:58;101654.31;;;12.96;100.00
18900;BME280;9582;52.018;6.306;2023-09-19T05:27:26;101653.47;;;12.95;100.00
18900;BME280;9582;52.018;6.306;2023-09-19T05:29:52;101660.41;;;12.96;100.00
18900;BME280;9582;52.018;6.306;2023-09-19T05:32:21;101654.13;;;13.00;100.00
18900;BME280;9582;52.018;6.306;2023-09-19T05:34:47;101654.13;;;13.00;100.00
18900;BME280;9582;52.018;6.306;2023-09-19T05:37:14;101658.44;;;13.01;100.00
18900;BME280;9582;52.018;6.306;2023-09-19T05:39:41;101651.22;;;13.08;100.00
18900;BME280;9582;52.018;6.306;2023-09-19T05:42:08;101648.59;;;13.08;100.00
18900;BME280;9582;52.018;6.306;2023-09-19T05:44:36;101661.47;;;13.14;100.00
18900;BME280;9582;52.018;6.306;2023-09-19T05:47:03;101666.50;;;13.18;100.00
18900;BME280;9582;52.018;6.306;2023-09-19T05:49:30;101662.00;;;13.22;100.00
18900;BME280;9582;52.018;6.306;2023-09-19T05:51:56;101668.03;;;13.24;100.00
18900;BME280;9582;52.018;6.306;2023-09-19T05:54:24;101672.25;;;13.28;100.00
18900;BME280;9582;52.018;6.306;2023-09-19T05:56:51;101669.66;;;13.26;100.00
18900;BME280;9582;52.018;6.306;2023-09-19T05:59:18;101667.91;;;13.27;100.00
18900;BME280;9582;52.018;6.306;2023-09-19T06:01:46;101668.84;;;13.26;100.00
18900;BME280;9582;52.018;6.306;2023-09-19T06:04:13;101663.59;;;13.26;100.00
18900;BME280;9582;52.018;6.306;2023-09-19T06:06:39;101660.84;;;13.29;100.00
18900;BME280;9582;52.018;6.306;2023-09-19T06:09:06;101661.66;;;13.29;100.00
18900;BME280;9582;52.018;6.306;2023-09-19T06:11:33;101659.00;;;13.31;100.00
18900;BME280;9582;52.018;6.306;2023-09-19T06:14:00;101663.34;;;13.32;100.00
18900;BME280;9582;52.018;6.306;2023-09-19T06:16:27;101672.00;;;13.34;100.00
18900;BME280;9582;52.018;6.306;2023-09-19T06:18:55;101679.75;;;13.37;100.00
18900;BME280;9582;52.018;6.306;2023-09-19T06:21:22;101676.19;;;13.38;100.00
18900;BME280;9582;52.018;6.306;2023-09-19T06:23:48;101682.03;;;13.45;100.00
18900;BME280;9582;52.018;6.306;2023-09-19T06:26:15;101685.19;;;13.53;100.00
18900;BME280;9582;52.018;6.306;2023-09-19T06:28:42;101683.19;;;13.58;100.00
18900;BME280;9582;52.018;6.306;2023-09-19T06:31:09;101680.19;;;13.67;100.00
18900;BME280;9582;52.018;6.306;2023-09-19T06:33:35;101686.03;;;13.73;100.00
18900;BME280;9582;52.018;6.306;2023-09-19T06:36:05;101683.31;;;13.75;100.00
18900;BME280;9582;52.018;6.306;2023-09-19T06:38:31;101688.41;;;13.79;100.00
18900;BME280;9582;52.018;6.306;2023-09-19T06:40:59;101689.81;;;13.86;100.00
18900;BME280;9582;52.018;6.306;2023-09-19T06:43:29;101695.94;;;13.87;100.00
18900;BME280;9582;52.018;6.306;2023-09-19T06:45:56;101698.34;;;13.92;100.00
18900;BME280;9582;52.018;6.306;2023-09-19T06:48:22;101697.03;;;14.02;100.00
18900;BME280;9582;52.018;6.306;2023-09-19T06:50:50;101700.81;;;14.15;100.00
18900;BME280;9582;52.018;6.306;2023-09-19T06:53:18;101696.25;;;14.18;100.00
18900;BME280;9582;52.018;6.306;2023-09-19T06:55:44;101703.16;;;14.21;100.00
18900;BME280;9582;52.018;6.306;2023-09-19T06:58:11;101710.78;;;14.27;100.00
18900;BME280;9582;52.018;6.306;2023-09-19T07:00:37;101703.66;;;14.29;100.00
18900;BME280;9582;52.018;6.306;2023-09-19T07:03:05;101702.56;;;14.34;100.00
18900;BME280;9582;52.018;6.306;2023-09-19T07:05:37;101703.13;;;14.41;100.00
18900;BME280;9582;52.018;6.306;2023-09-19T07:08:05;101703.00;;;14.44;100.00
18900;BME280;9582;52.018;6.306;2023-09-19T07:10:33;101694.16;;;14.45;100.00
18900;BME280;9582;52.018;6.306;2023-09-19T07:13:00;101701.75;;;14.51;100.00
18900;BME280;9582;52.018;6.306;2023-09-19T07:15:28;101698.22;;;14.52;100.00
18900;BME280;9582;52.018;6.306;2023-09-19T07:17:56;101698.06;;;14.55;100.00
18900;BME280;9582;52.018;6.306;2023-09-19T07:20:23;101712.78;;;14.59;100.00
18900;BME280;9582;52.018;6.306;2023-09-19T07:22:51;101713.34;;;14.66;100.00
18900;BME280;9582;52.018;6.306;2023-09-19T07:25:20;101706.16;;;14.69;100.00
18900;BME280;9582;52.018;6.306;2023-09-19T07:27:47;101703.09;;;14.78;100.00
18900;BME280;9582;52.018;6.306;2023-09-19T07:30:14;101702.81;;;14.84;100.00
18900;BME280;9582;52.018;6.306;2023-09-19T07:32:41;101707.91;;;14.87;100.00
18900;BME280;9582;52.018;6.306;2023-09-19T07:35:08;101703.28;;;14.92;100.00
18900;BME280;9582;52.018;6.306;2023-09-19T07:37:34;101709.47;;;14.91;100.00
18900;BME280;9582;52.018;6.306;2023-09-19T07:40:01;101712.59;;;14.99;100.00
18900;BME280;9582;52.018;6.306;2023-09-19T07:42:32;101712.91;;;15.11;100.00
18900;BME280;9582;52.018;6.306;2023-09-19T07:45:01;101723.28;;;15.14;100.00
18900;BME280;9582;52.018;6.306;2023-09-19T07:47:28;101718.50;;;15.22;100.00
18900;BME280;9582;52.018;6.306;2023-09-19T07:49:55;101717.28;;;15.29;100.00
18900;BME280;9582;52.018;6.306;2023-09-19T07:52:21;101719.63;;;15.35;100.00
18900;BME280;9582;52.018;6.306;2023-09-19T07:54:49;101715.09;;;15.37;100.00
18900;BME280;9582;52.018;6.306;2023-09-19T07:57:15;101728.91;;;15.42;100.00
18900;BME280;9582;52.018;6.306;2023-09-19T07:59:42;101723.78;;;15.39;100.00
18900;BME280;9582;52.018;6.306;2023-09-19T08:02:10;101726.25;;;15.42;100.00
18900;BME280;9582;52.018;6.306;2023-09-19T08:04:41;101736.63;;;15.46;100.00
18900;BME280;9582;52.018;6.306;2023-09-19T08:07:07;101734.00;;;15.46;100.00
18900;BME280;9582;52.018;6.306;2023-09-19T08:09:36;101729.78;;;15.59;100.00
18900;BME280;9582;52.018;6.306;2023-09-19T08:12:04;101736.69;;;15.62;100.00
18900;BME280;9582;52.018;6.306;2023-09-19T08:14:30;101746.94;;;15.68;100.00
18900;BME280;9582;52.018;6.306;2023-09-19T08:16:58;101736.84;;;15.76;100.00
18900;BME280;9582;52.018;6.306;2023-09-19T08:19:27;101742.56;;;15.84;100.00
18900;BME280;9582;52.018;6.306;2023-09-19T08:21:56;101755.28;;;15.93;100.00
18900;BME280;9582;52.018;6.306;2023-09-19T08:24:24;101741.94;;;15.96;100.00
18900;BME280;9582;52.018;6.306;2023-09-19T08:26:52;101755.13;;;15.96;100.00
18900;BME280;9582;52.018;6.306;2023-09-19T08:29:19;101743.56;;;15.99;100.00
18900;BME280;9582;52.018;6.306;2023-09-19T08:31:46;101759.28;;;16.00;100.00
18900;BME280;9582;52.018;6.306;2023-09-19T08:34:14;101754.97;;;15.99;100.00
18900;BME280;9582;52.018;6.306;2023-09-19T08:36:42;101764.34;;;16.05;100.00
18900;BME280;9582;52.018;6.306;2023-09-19T08:39:10;101757.13;;;16.08;100.00
18900;BME280;9582;52.018;6.306;2023-09-19T08:41:39;101766.66;;;16.11;100.00
18900;BME280;9582;52.018;6.306;2023-09-19T08:44:05;101776.81;;;16.18;100.00
18900;BME280;9582;52.018;6.306;2023-09-19T08:46:34;101782.69;;;16.24;100.00
18900;BME280;9582;52.018;6.306;2023-09-19T08:49:04;101776.81;;;16.34;100.00
18900;BME280;9582;52.018;6.306;2023-09-19T08:51:39;101774.13;;;16.36;100.00
18900;BME280;9582;52.018;6.306;2023-09-19T08:54:16;101775.31;;;16.46;100.00
18900;BME280;9582;52.018;6.306;2023-09-19T08:56:47;101769.56;;;16.55;100.00
18900;BME280;9582;52.018;6.306;2023-09-19T08:59:14;101786.00;;;16.60;100.00
18900;BME280;9582;52.018;6.306;2023-09-19T09:01:42;101770.44;;;16.71;100.00
18900;BME280;9582;52.018;6.306;2023-09-19T09:04:09;101778.63;;;16.82;100.00
18900;BME280;9582;52.018;6.306;2023-09-19T09:06:38;101766.94;;;16.86;100.00
18900;BME280;9582;52.018;6.306;2023-09-19T09:09:05;101775.88;;;16.99;100.00
18900;BME280;9582;52.018;6.306;2023-09-19T09:11:36;101772.72;;;17.08;100.00
18900;BME280;9582;52.018;6.306;2023-09-19T09:14:05;101774.97;;;17.16;100.00
18900;BME280;9582;52.018;6.306;2023-09-19T09:16:32;101773.66;;;17.23;100.00
18900;BME280;9582;52.018;6.306;2023-09-19T09:18:59;101770.16;;;17.22;100.00
18900;BME280;9582;52.018;6.306;2023-09-19T09:21:27;101792.34;;;17.20;100.00
18900;BME280;9582;52.018;6.306;2023-09-19T09:23:53;101792.25;;;17.21;100.00
18900;BME280;9582;52.018;6.306;2023-09-19T09:26:42;101781.94;;;17.33;100.00
18900;BME280;9582;52.018;6.306;2023-09-19T09:29:09;101784.34;;;17.51;100.00
18900;BME280;9582;52.018;6.306;2023-09-19T09:31:35;101783.09;;;17.58;100.00
18900;BME280;9582;52.018;6.306;2023-09-19T09:34:02;101784.69;;;17.61;100.00
18900;BME280;9582;52.018;6.306;2023-09-19T09:36:34;101783.97;;;17.73;100.00
18900;BME280;9582;52.018;6.306;2023-09-19T09:39:02;101781.25;;;17.74;100.00
18900;BME280;9582;52.018;6.306;2023-09-19T09:41:42;101788.63;;;17.83;100.00
18900;BME280;9582;52.018;6.306;2023-09-19T09:44:13;101784.19;;;17.98;100.00
18900;BME280;9582;52.018;6.306;2023-09-19T09:46:43;101794.22;;;17.93;100.00
18900;BME280;9582;52.018;6.306;2023-09-19T09:49:47;101802.66;;;18.00;100.00
18900;BME280;9582;52.018;6.306;2023-09-19T09:52:19;101790.66;;;18.08;100.00
18900;BME280;9582;52.018;6.306;2023-09-19T09:54:58;101799.28;;;18.12;100.00
18900;BME280;9582;52.018;6.306;2023-09-19T09:57:27;101800.84;;;18.00;100.00
18900;BME280;9582;52.018;6.306;2023-09-19T09:59:57;101801.03;;;17.97;100.00
18900;BME280;9582;52.018;6.306;2023-09-19T10:02:37;101783.66;;;18.07;100.00
18900;BME280;9582;52.018;6.306;2023-09-19T10:05:12;101790.00;;;18.19;100.00
18900;BME280;9582;52.018;6.306;2023-09-19T10:07:47;101806.00;;;18.31;100.00
18900;BME280;9582;52.018;6.306;2023-09-19T10:10:30;101808.06;;;18.40;100.00
18900;BME280;9582;52.018;6.306;2023-09-19T10:13:05;101806.63;;;18.35;100.00
18900;BME280;9582;52.018;6.306;2023-09-19T10:15:33;101802.19;;;18.35;100.00
18900;BME280;9582;52.018;6.306;2023-09-19T10:18:04;101807.13;;;18.41;100.00
18900;BME280;9582;52.018;6.306;2023-09-19T10:20:31;101802.50;;;18.45;100.00
18900;BME280;9582;52.018;6.306;2023-09-19T10:23:06;101805.72;;;18.50;100.00
18900;BME280;9582;52.018;6.306;2023-09-19T10:25:39;101813.47;;;18.39;100.00
18900;BME280;9582;52.018;6.306;2023-09-19T10:28:08;101804.19;;;18.32;100.00
18900;BME280;9582;52.018;6.306;2023-09-19T10:30:37;101797.38;;;18.42;100.00
18900;BME280;9582;52.018;6.306;2023-09-19T10:33:07;101800.69;;;18.45;100.00
18900;BME280;9582;52.018;6.306;2023-09-19T10:35:38;101795.59;;;18.42;100.00
18900;BME280;9582;52.018;6.306;2023-09-19T10:38:06;101798.66;;;18.51;100.00
18900;BME280;9582;52.018;6.306;2023-09-19T10:40:35;101788.22;;;18.62;100.00
18900;BME280;9582;52.018;6.306;2023-09-19T10:43:11;101782.72;;;18.79;100.00
18900;BME280;9582;52.018;6.306;2023-09-19T10:45:38;101785.53;;;18.90;100.00
18900;BME280;9582;52.018;6.306;2023-09-19T10:48:06;101784.59;;;18.91;100.00
18900;BME280;9582;52.018;6.306;2023-09-19T10:50:43;101794.56;;;19.00;100.00
18900;BME280;9582;52.018;6.306;2023-09-19T10:53:11;101788.84;;;18.93;100.00
18900;BME280;9582;52.018;6.306;2023-09-19T10:55:39;101793.63;;;19.01;100.00
18900;BME280;9582;52.018;6.306;2023-09-19T10:58:08;101784.78;;;19.15;100.00
18900;BME280;9582;52.018;6.306;2023-09-19T11:00:50;101779.53;;;19.27;100.00
18900;BME280;9582;52.018;6.306;2023-09-19T11:03:18;101782.81;;;19.31;100.00
18900;BME280;9582;52.018;6.306;2023-09-19T11:06:06;101778.97;;;19.22;100.00
18900;BME280;9582;52.018;6.306;2023-09-19T11:08:55;101764.78;;;19.23;100.00
18900;BME280;9582;52.018;6.306;2023-09-19T11:11:42;101775.91;;;19.16;100.00
18900;BME280;9582;52.018;6.306;2023-09-19T11:14:30;101758.78;;;19.07;100.00
18900;BME280;9582;52.018;6.306;2023-09-19T11:20:21;101749.72;;;18.97;100.00
18900;BME280;9582;52.018;6.306;2023-09-19T11:23:22;101747.84;;;18.99;100.00
18900;BME280;9582;52.018;6.306;2023-09-19T11:25:51;101749.72;;;18.97;100.00
18900;BME280;9582;52.018;6.306;2023-09-19T11:28:32;101757.56;;;18.98;100.00
18900;BME280;9582;52.018;6.306;2023-09-19T11:34:40;101727.91;;;19.06;100.00
18900;BME280;9582;52.018;6.306;2023-09-19T11:40:27;101728.50;;;19.76;100.00
18900;BME280;9582;52.018;6.306;2023-09-19T11:42:55;101719.59;;;19.77;100.00
18900;BME280;9582;52.018;6.306;2023-09-19T11:46:00;101727.03;;;19.72;100.00
18900;BME280;9582;52.018;6.306;2023-09-19T11:48:27;101721.28;;;19.52;100.00
18900;BME280;9582;52.018;6.306;2023-09-19T11:50:56;101724.03;;;19.38;100.00
18900;BME280;9582;52.018;6.306;2023-09-19T11:53:31;101730.09;;;19.26;100.00
18900;BME280;9582;52.018;6.306;2023-09-19T11:56:04;101734.13;;;19.19;100.00
18900;BME280;9582;52.018;6.306;2023-09-19T11:58:36;101737.06;;;19.15;100.00
18900;BME280;9582;52.018;6.306;2023-09-19T12:01:05;101742.56;;;19.12;100.00
18900;BME280;9582;52.018;6.306;2023-09-19T12:03:41;101739.44;;;19.19;100.00
18900;BME280;9582;52.018;6.306;2023-09-19T12:06:13;101743.44;;;19.39;100.00
18900;BME280;9582;52.018;6.306;2023-09-19T12:08:41;101733.16;;;19.59;100.00
18900;BME280;9582;52.018;6.306;2023-09-19T12:11:12;101725.63;;;19.79;100.00
18900;BME280;9582;52.018;6.306;2023-09-19T12:13:41;101728.19;;;19.93;100.00
18900;BME280;9582;52.018;6.306;2023-09-19T12:16:12;101726.91;;;19.98;100.00
18900;BME280;9582;52.018;6.306;2023-09-19T12:18:40;101708.16;;;19.89;100.00
18900;BME280;9582;52.018;6.306;2023-09-19T12:21:07;101735.53;;;19.77;100.00
18900;BME280;9582;52.018;6.306;2023-09-19T12:23:38;101733.41;;;19.69;100.00
18900;BME280;9582;52.018;6.306;2023-09-19T12:26:07;101726.69;;;19.76;100.00
18900;BME280;9582;52.018;6.306;2023-09-19T12:28:41;101725.56;;;19.80;100.00
18900;BME280;9582;52.018;6.306;2023-09-19T12:31:08;101707.06;;;19.79;100.00
18900;BME280;9582;52.018;6.306;2023-09-19T12:33:36;101711.66;;;19.89;100.00
18900;BME280;9582;52.018;6.306;2023-09-19T12:36:19;101700.28;;;20.00;100.00
18900;BME280;9582;52.018;6.306;2023-09-19T12:38:55;101699.41;;;20.12;100.00
18900;BME280;9582;52.018;6.306;2023-09-19T12:41:25;101714.50;;;20.11;100.00
18900;BME280;9582;52.018;6.306;2023-09-19T12:43:52;101716.63;;;20.06;100.00
18900;BME280;9582;52.018;6.306;2023-09-19T12:46:20;101715.22;;;20.13;100.00
18900;BME280;9582;52.018;6.306;2023-09-19T12:51:35;101712.16;;;20.07;100.00
18900;BME280;9582;52.018;6.306;2023-09-19T12:54:03;101707.63;;;19.84;100.00
18900;BME280;9582;52.018;6.306;2023-09-19T12:56:39;101711.75;;;19.88;100.00
18900;BME280;9582;52.018;6.306;2023-09-19T12:59:07;101726.06;;;19.85;100.00
18900;BME280;9582;52.018;6.306;2023-09-19T13:01:37;101703.34;;;19.69;100.00
18900;BME280;9582;52.018;6.306;2023-09-19T13:04:15;101700.78;;;19.54;100.00
18900;BME280;9582;52.018;6.306;2023-09-19T13:06:44;101713.81;;;19.45;100.00
18900;BME280;9582;52.018;6.306;2023-09-19T13:09:15;101714.44;;;19.36;100.00
18900;BME280;9582;52.018;6.306;2023-09-19T13:11:43;101697.97;;;19.31;100.00
18900;BME280;9582;52.018;6.306;2023-09-19T13:14:16;101712.69;;;19.22;100.00
18900;BME280;9582;52.018;6.306;2023-09-19T13:16:57;101702.72;;;19.13;100.00
18900;BME280;9582;52.018;6.306;2023-09-19T13:19:40;101715.09;;;19.13;100.00
18900;BME280;9582;52.018;6.306;2023-09-19T13:22:39;101689.75;;;19.09;100.00